Fort Morgan, Colorado
Current Conditions -  °F | °C
As of 2:15 PM on Tuesday 21 Oct 2014 (Local Time) from KFMM Reporting Station
Clear Clear  
Wind Chill: 78°   Ceiling: Unl
Heat Index: 78°   Visibility: 10mi
Dew Point: 36°   Wind: 3mph
Humidity: 23%   Direction: 190°S
Pressure: 29.91"   Gusts: NA
Location:  40.25°N, 103.8°W
Report Text: KFMM 212015Z AUTO 19003KT 10SM CLR 25/02 A2991 RMK AO2 T02530024
Loading
Personal Weather Stations






























Interactive Weather Map
Tropical Storm Tracking
New forecast layout! Learn more

10-Day Weather Forecast

Advertisements
Track Severe Weather on mobile